sensor_id;sensor_type;location;lat;lon;timestamp;P1;durP1;ratioP1;P2;durP2;ratioP2
11514;SDS011;5814;41.936;25.556;2022-12-18T00:00:09;49.87;;;41.00;;
11514;SDS011;5814;41.936;25.556;2022-12-18T00:02:37;56.70;;;45.87;;
11514;SDS011;5814;41.936;25.556;2022-12-18T00:05:05;59.10;;;46.00;;
11514;SDS011;5814;41.936;25.556;2022-12-18T00:07:33;55.20;;;46.50;;
11514;SDS011;5814;41.936;25.556;2022-12-18T00:10:01;61.63;;;46.50;;
11514;SDS011;5814;41.936;25.556;2022-12-18T00:12:28;56.43;;;45.73;;
11514;SDS011;5814;41.936;25.556;2022-12-18T00:14:55;49.70;;;40.67;;
11514;SDS011;5814;41.936;25.556;2022-12-18T00:17:22;47.67;;;38.87;;
11514;SDS011;5814;41.936;25.556;2022-12-18T00:19:49;47.13;;;38.13;;
11514;SDS011;5814;41.936;25.556;2022-12-18T00:22:16;47.97;;;39.30;;
11514;SDS011;5814;41.936;25.556;2022-12-18T00:24:44;46.43;;;38.37;;
11514;SDS011;5814;41.936;25.556;2022-12-18T00:27:11;46.43;;;38.43;;
11514;SDS011;5814;41.936;25.556;2022-12-18T00:29:38;45.80;;;37.77;;
11514;SDS011;5814;41.936;25.556;2022-12-18T00:32:06;45.67;;;39.07;;
11514;SDS011;5814;41.936;25.556;2022-12-18T00:34:33;45.77;;;37.70;;
11514;SDS011;5814;41.936;25.556;2022-12-18T00:37:00;45.37;;;37.50;;
11514;SDS011;5814;41.936;25.556;2022-12-18T00:39:28;45.73;;;38.87;;
11514;SDS011;5814;41.936;25.556;2022-12-18T00:41:55;46.63;;;38.47;;
11514;SDS011;5814;41.936;25.556;2022-12-18T00:44:27;50.10;;;39.23;;
11514;SDS011;5814;41.936;25.556;2022-12-18T00:46:55;47.60;;;40.57;;
11514;SDS011;5814;41.936;25.556;2022-12-18T00:49:22;53.03;;;41.10;;
11514;SDS011;5814;41.936;25.556;2022-12-18T00:51:49;55.17;;;41.50;;
11514;SDS011;5814;41.936;25.556;2022-12-18T00:54:16;49.27;;;40.00;;
11514;SDS011;5814;41.936;25.556;2022-12-18T00:56:44;50.13;;;40.27;;
11514;SDS011;5814;41.936;25.556;2022-12-18T00:59:11;51.43;;;40.77;;
11514;SDS011;5814;41.936;25.556;2022-12-18T01:01:38;53.57;;;42.93;;
11514;SDS011;5814;41.936;25.556;2022-12-18T01:04:05;55.13;;;44.30;;
11514;SDS011;5814;41.936;25.556;2022-12-18T01:06:32;60.63;;;44.60;;
11514;SDS011;5814;41.936;25.556;2022-12-18T01:08:59;56.10;;;44.30;;
11514;SDS011;5814;41.936;25.556;2022-12-18T01:11:27;58.93;;;46.83;;
11514;SDS011;5814;41.936;25.556;2022-12-18T01:13:54;63.70;;;47.03;;
11514;SDS011;5814;41.936;25.556;2022-12-18T01:16:21;60.60;;;45.03;;
11514;SDS011;5814;41.936;25.556;2022-12-18T01:18:51;59.50;;;45.30;;
11514;SDS011;5814;41.936;25.556;2022-12-18T01:21:18;56.23;;;47.27;;
11514;SDS011;5814;41.936;25.556;2022-12-18T01:23:46;58.10;;;42.87;;
11514;SDS011;5814;41.936;25.556;2022-12-18T01:26:14;59.20;;;46.13;;
11514;SDS011;5814;41.936;25.556;2022-12-18T01:28:40;53.13;;;42.67;;
11514;SDS011;5814;41.936;25.556;2022-12-18T01:31:10;52.33;;;42.33;;
11514;SDS011;5814;41.936;25.556;2022-12-18T01:33:38;50.37;;;41.33;;
11514;SDS011;5814;41.936;25.556;2022-12-18T01:36:05;52.57;;;42.53;;
11514;SDS011;5814;41.936;25.556;2022-12-18T01:38:33;52.90;;;42.70;;
11514;SDS011;5814;41.936;25.556;2022-12-18T01:41:00;53.63;;;42.00;;
11514;SDS011;5814;41.936;25.556;2022-12-18T01:44:46;62.57;;;46.47;;
11514;SDS011;5814;41.936;25.556;2022-12-18T01:46:15;56.33;;;45.03;;
11514;SDS011;5814;41.936;25.556;2022-12-18T01:48:43;58.00;;;43.80;;
11514;SDS011;5814;41.936;25.556;2022-12-18T01:51:10;52.53;;;40.57;;
11514;SDS011;5814;41.936;25.556;2022-12-18T01:53:37;48.67;;;39.47;;
11514;SDS011;5814;41.936;25.556;2022-12-18T01:56:04;51.27;;;41.70;;
11514;SDS011;5814;41.936;25.556;2022-12-18T01:58:38;51.07;;;41.83;;
11514;SDS011;5814;41.936;25.556;2022-12-18T02:01:06;54.73;;;41.73;;
11514;SDS011;5814;41.936;25.556;2022-12-18T02:03:33;53.53;;;42.03;;
11514;SDS011;5814;41.936;25.556;2022-12-18T02:06:16;53.60;;;42.43;;
11514;SDS011;5814;41.936;25.556;2022-12-18T02:08:46;47.40;;;38.20;;
11514;SDS011;5814;41.936;25.556;2022-12-18T02:11:22;50.53;;;39.93;;
11514;SDS011;5814;41.936;25.556;2022-12-18T02:13:56;48.40;;;39.63;;
11514;SDS011;5814;41.936;25.556;2022-12-18T02:16:39;52.87;;;41.17;;
11514;SDS011;5814;41.936;25.556;2022-12-18T02:19:06;47.23;;;39.40;;
11514;SDS011;5814;41.936;25.556;2022-12-18T02:21:35;46.37;;;38.97;;
11514;SDS011;5814;41.936;25.556;2022-12-18T02:24:15;46.53;;;37.80;;
11514;SDS011;5814;41.936;25.556;2022-12-18T02:26:56;45.60;;;36.90;;
11514;SDS011;5814;41.936;25.556;2022-12-18T02:29:25;44.13;;;36.33;;
11514;SDS011;5814;41.936;25.556;2022-12-18T02:31:56;46.97;;;37.00;;
11514;SDS011;5814;41.936;25.556;2022-12-18T02:34:22;43.57;;;35.97;;
11514;SDS011;5814;41.936;25.556;2022-12-18T02:36:49;45.20;;;36.67;;
11514;SDS011;5814;41.936;25.556;2022-12-18T02:39:16;43.00;;;35.43;;
11514;SDS011;5814;41.936;25.556;2022-12-18T02:41:43;42.23;;;35.10;;
11514;SDS011;5814;41.936;25.556;2022-12-18T02:44:11;42.87;;;34.03;;
11514;SDS011;5814;41.936;25.556;2022-12-18T02:46:39;42.80;;;35.10;;
11514;SDS011;5814;41.936;25.556;2022-12-18T02:49:06;46.10;;;35.00;;
11514;SDS011;5814;41.936;25.556;2022-12-18T02:51:42;42.40;;;34.27;;
11514;SDS011;5814;41.936;25.556;2022-12-18T02:54:09;44.43;;;35.93;;
11514;SDS011;5814;41.936;25.556;2022-12-18T02:56:40;43.27;;;36.17;;
11514;SDS011;5814;41.936;25.556;2022-12-18T02:59:08;46.80;;;36.97;;
11514;SDS011;5814;41.936;25.556;2022-12-18T03:01:34;45.00;;;36.17;;
11514;SDS011;5814;41.936;25.556;2022-12-18T03:04:02;51.97;;;38.33;;
11514;SDS011;5814;41.936;25.556;2022-12-18T03:06:32;51.53;;;37.23;;
11514;SDS011;5814;41.936;25.556;2022-12-18T03:08:59;54.27;;;37.50;;
11514;SDS011;5814;41.936;25.556;2022-12-18T03:11:26;49.97;;;38.13;;
11514;SDS011;5814;41.936;25.556;2022-12-18T03:13:59;53.10;;;40.67;;
11514;SDS011;5814;41.936;25.556;2022-12-18T03:16:27;50.63;;;40.43;;
11514;SDS011;5814;41.936;25.556;2022-12-18T03:18:59;49.03;;;39.30;;
11514;SDS011;5814;41.936;25.556;2022-12-18T03:21:28;47.80;;;36.80;;
11514;SDS011;5814;41.936;25.556;2022-12-18T03:23:53;48.93;;;37.00;;
11514;SDS011;5814;41.936;25.556;2022-12-18T03:26:21;44.80;;;37.80;;
11514;SDS011;5814;41.936;25.556;2022-12-18T03:28:51;48.10;;;35.90;;
11514;SDS011;5814;41.936;25.556;2022-12-18T03:31:16;46.10;;;35.80;;
11514;SDS011;5814;41.936;25.556;2022-12-18T03:33:46;48.60;;;35.47;;
11514;SDS011;5814;41.936;25.556;2022-12-18T03:36:14;44.83;;;36.33;;
11514;SDS011;5814;41.936;25.556;2022-12-18T03:38:41;45.53;;;34.37;;
11514;SDS011;5814;41.936;25.556;2022-12-18T03:41:15;47.57;;;36.70;;
11514;SDS011;5814;41.936;25.556;2022-12-18T03:43:51;44.47;;;36.23;;
11514;SDS011;5814;41.936;25.556;2022-12-18T03:46:28;44.70;;;35.63;;
11514;SDS011;5814;41.936;25.556;2022-12-18T03:49:00;44.10;;;35.30;;
11514;SDS011;5814;41.936;25.556;2022-12-18T03:51:32;43.37;;;35.77;;
11514;SDS011;5814;41.936;25.556;2022-12-18T03:53:57;46.83;;;34.80;;
11514;SDS011;5814;41.936;25.556;2022-12-18T03:56:23;45.73;;;36.57;;
11514;SDS011;5814;41.936;25.556;2022-12-18T03:58:50;48.23;;;35.80;;
11514;SDS011;5814;41.936;25.556;2022-12-18T04:01:17;43.07;;;34.87;;
11514;SDS011;5814;41.936;25.556;2022-12-18T04:03:44;43.90;;;35.27;;
11514;SDS011;5814;41.936;25.556;2022-12-18T04:06:12;42.43;;;34.40;;
11514;SDS011;5814;41.936;25.556;2022-12-18T04:08:39;41.30;;;33.43;;
11514;SDS011;5814;41.936;25.556;2022-12-18T04:11:06;41.10;;;33.73;;
11514;SDS011;5814;41.936;25.556;2022-12-18T04:13:35;45.50;;;35.47;;
11514;SDS011;5814;41.936;25.556;2022-12-18T04:16:01;44.77;;;35.13;;
11514;SDS011;5814;41.936;25.556;2022-12-18T04:18:28;39.97;;;33.70;;
11514;SDS011;5814;41.936;25.556;2022-12-18T04:20:56;40.47;;;33.60;;
11514;SDS011;5814;41.936;25.556;2022-12-18T04:23:23;41.20;;;31.80;;
11514;SDS011;5814;41.936;25.556;2022-12-18T04:25:50;39.77;;;31.93;;
11514;SDS011;5814;41.936;25.556;2022-12-18T04:28:17;44.77;;;33.07;;
11514;SDS011;5814;41.936;25.556;2022-12-18T04:30:44;39.20;;;32.40;;
11514;SDS011;5814;41.936;25.556;2022-12-18T04:33:12;42.93;;;33.87;;
11514;SDS011;5814;41.936;25.556;2022-12-18T04:35:39;42.40;;;33.03;;
11514;SDS011;5814;41.936;25.556;2022-12-18T04:38:06;41.73;;;33.53;;
11514;SDS011;5814;41.936;25.556;2022-12-18T04:40:33;42.00;;;33.67;;
11514;SDS011;5814;41.936;25.556;2022-12-18T04:43:00;42.70;;;33.93;;
11514;SDS011;5814;41.936;25.556;2022-12-18T04:45:28;45.33;;;34.77;;
11514;SDS011;5814;41.936;25.556;2022-12-18T04:47:56;45.20;;;35.93;;
11514;SDS011;5814;41.936;25.556;2022-12-18T04:50:22;47.50;;;37.47;;
11514;SDS011;5814;41.936;25.556;2022-12-18T04:52:49;51.00;;;38.93;;
11514;SDS011;5814;41.936;25.556;2022-12-18T04:55:16;49.50;;;38.53;;
11514;SDS011;5814;41.936;25.556;2022-12-18T04:57:44;46.70;;;37.37;;
11514;SDS011;5814;41.936;25.556;2022-12-18T05:00:11;48.00;;;38.97;;
11514;SDS011;5814;41.936;25.556;2022-12-18T05:02:39;48.40;;;38.83;;
11514;SDS011;5814;41.936;25.556;2022-12-18T05:05:07;47.27;;;36.70;;
11514;SDS011;5814;41.936;25.556;2022-12-18T05:07:35;48.97;;;38.00;;
11514;SDS011;5814;41.936;25.556;2022-12-18T05:10:02;51.23;;;39.60;;
11514;SDS011;5814;41.936;25.556;2022-12-18T05:12:30;51.07;;;40.00;;
11514;SDS011;5814;41.936;25.556;2022-12-18T05:14:57;47.27;;;38.30;;
11514;SDS011;5814;41.936;25.556;2022-12-18T05:17:25;53.87;;;38.90;;
11514;SDS011;5814;41.936;25.556;2022-12-18T05:19:52;50.07;;;39.87;;
11514;SDS011;5814;41.936;25.556;2022-12-18T05:22:19;51.63;;;39.40;;
11514;SDS011;5814;41.936;25.556;2022-12-18T05:24:46;53.80;;;38.53;;
11514;SDS011;5814;41.936;25.556;2022-12-18T05:27:13;48.57;;;37.87;;
11514;SDS011;5814;41.936;25.556;2022-12-18T05:29:41;50.43;;;39.00;;
11514;SDS011;5814;41.936;25.556;2022-12-18T05:32:08;53.17;;;37.87;;
11514;SDS011;5814;41.936;25.556;2022-12-18T05:34:35;50.33;;;40.13;;
11514;SDS011;5814;41.936;25.556;2022-12-18T05:37:02;47.97;;;37.93;;
11514;SDS011;5814;41.936;25.556;2022-12-18T05:39:29;50.07;;;37.23;;
11514;SDS011;5814;41.936;25.556;2022-12-18T05:41:56;47.90;;;36.27;;
11514;SDS011;5814;41.936;25.556;2022-12-18T05:44:24;47.97;;;37.73;;
11514;SDS011;5814;41.936;25.556;2022-12-18T05:46:51;47.97;;;37.70;;
11514;SDS011;5814;41.936;25.556;2022-12-18T05:49:18;47.53;;;38.13;;
11514;SDS011;5814;41.936;25.556;2022-12-18T05:51:45;50.43;;;37.87;;
11514;SDS011;5814;41.936;25.556;2022-12-18T05:54:13;46.43;;;37.40;;
11514;SDS011;5814;41.936;25.556;2022-12-18T05:56:40;50.50;;;39.13;;
11514;SDS011;5814;41.936;25.556;2022-12-18T05:59:07;50.50;;;39.23;;
11514;SDS011;5814;41.936;25.556;2022-12-18T06:01:34;46.00;;;36.97;;
11514;SDS011;5814;41.936;25.556;2022-12-18T06:04:01;46.80;;;35.87;;
11514;SDS011;5814;41.936;25.556;2022-12-18T06:06:28;44.27;;;35.73;;
11514;SDS011;5814;41.936;25.556;2022-12-18T06:08:56;44.67;;;33.90;;
11514;SDS011;5814;41.936;25.556;2022-12-18T06:11:24;43.57;;;35.03;;
11514;SDS011;5814;41.936;25.556;2022-12-18T06:13:51;47.70;;;35.53;;
11514;SDS011;5814;41.936;25.556;2022-12-18T06:16:18;44.50;;;35.40;;
11514;SDS011;5814;41.936;25.556;2022-12-18T06:18:45;46.57;;;36.03;;
11514;SDS011;5814;41.936;25.556;2022-12-18T06:21:12;47.20;;;36.33;;
11514;SDS011;5814;41.936;25.556;2022-12-18T06:23:40;42.70;;;33.37;;
11514;SDS011;5814;41.936;25.556;2022-12-18T06:26:08;40.33;;;34.60;;
11514;SDS011;5814;41.936;25.556;2022-12-18T06:28:35;41.00;;;32.97;;
11514;SDS011;5814;41.936;25.556;2022-12-18T06:31:02;42.97;;;34.03;;
11514;SDS011;5814;41.936;25.556;2022-12-18T06:33:29;39.60;;;32.60;;
11514;SDS011;5814;41.936;25.556;2022-12-18T06:36:01;38.10;;;30.67;;
11514;SDS011;5814;41.936;25.556;2022-12-18T06:38:28;35.93;;;31.40;;
11514;SDS011;5814;41.936;25.556;2022-12-18T06:40:55;34.40;;;29.97;;
11514;SDS011;5814;41.936;25.556;2022-12-18T06:43:22;34.90;;;30.97;;
11514;SDS011;5814;41.936;25.556;2022-12-18T06:45:49;36.50;;;30.10;;
11514;SDS011;5814;41.936;25.556;2022-12-18T06:48:16;42.30;;;32.37;;
11514;SDS011;5814;41.936;25.556;2022-12-18T06:50:44;35.43;;;30.90;;
11514;SDS011;5814;41.936;25.556;2022-12-18T06:53:11;35.47;;;31.67;;
11514;SDS011;5814;41.936;25.556;2022-12-18T06:55:38;34.27;;;30.40;;
11514;SDS011;5814;41.936;25.556;2022-12-18T06:58:05;28.40;;;25.37;;
11514;SDS011;5814;41.936;25.556;2022-12-18T07:00:32;27.13;;;24.47;;
11514;SDS011;5814;41.936;25.556;2022-12-18T07:02:59;27.23;;;24.43;;
11514;SDS011;5814;41.936;25.556;2022-12-18T07:05:27;21.30;;;19.40;;
11514;SDS011;5814;41.936;25.556;2022-12-18T07:07:54;19.43;;;17.83;;
11514;SDS011;5814;41.936;25.556;2022-12-18T07:10:21;19.00;;;17.40;;
11514;SDS011;5814;41.936;25.556;2022-12-18T07:12:48;16.53;;;15.33;;
11514;SDS011;5814;41.936;25.556;2022-12-18T07:15:16;17.40;;;16.00;;
11514;SDS011;5814;41.936;25.556;2022-12-18T07:17:43;16.27;;;14.97;;
11514;SDS011;5814;41.936;25.556;2022-12-18T07:20:10;14.10;;;13.00;;
11514;SDS011;5814;41.936;25.556;2022-12-18T07:22:37;15.00;;;13.57;;
11514;SDS011;5814;41.936;25.556;2022-12-18T07:25:05;14.60;;;13.50;;
11514;SDS011;5814;41.936;25.556;2022-12-18T07:27:33;14.57;;;13.47;;
11514;SDS011;5814;41.936;25.556;2022-12-18T07:30:00;15.37;;;14.37;;
11514;SDS011;5814;41.936;25.556;2022-12-18T07:32:27;15.53;;;14.43;;
11514;SDS011;5814;41.936;25.556;2022-12-18T07:34:55;16.10;;;14.90;;
11514;SDS011;5814;41.936;25.556;2022-12-18T07:37:22;16.97;;;15.67;;
11514;SDS011;5814;41.936;25.556;2022-12-18T07:39:49;16.53;;;15.33;;
11514;SDS011;5814;41.936;25.556;2022-12-18T07:42:16;17.00;;;15.70;;
11514;SDS011;5814;41.936;25.556;2022-12-18T07:44:49;17.13;;;15.73;;
11514;SDS011;5814;41.936;25.556;2022-12-18T07:47:16;17.03;;;15.63;;
11514;SDS011;5814;41.936;25.556;2022-12-18T07:49:43;16.63;;;15.23;;
11514;SDS011;5814;41.936;25.556;2022-12-18T07:52:11;16.93;;;15.73;;
11514;SDS011;5814;41.936;25.556;2022-12-18T07:54:38;17.83;;;16.53;;
11514;SDS011;5814;41.936;25.556;2022-12-18T07:57:06;17.47;;;16.07;;
11514;SDS011;5814;41.936;25.556;2022-12-18T07:59:33;19.27;;;17.77;;
11514;SDS011;5814;41.936;25.556;2022-12-18T08:02:00;20.10;;;18.37;;
11514;SDS011;5814;41.936;25.556;2022-12-18T08:04:27;17.47;;;16.17;;
11514;SDS011;5814;41.936;25.556;2022-12-18T08:06:54;18.00;;;16.47;;
11514;SDS011;5814;41.936;25.556;2022-12-18T08:09:21;20.43;;;18.63;;
11514;SDS011;5814;41.936;25.556;2022-12-18T08:11:48;20.50;;;18.87;;
11514;SDS011;5814;41.936;25.556;2022-12-18T08:14:16;20.47;;;18.70;;
11514;SDS011;5814;41.936;25.556;2022-12-18T08:16:43;21.57;;;19.40;;
11514;SDS011;5814;41.936;25.556;2022-12-18T08:19:10;20.77;;;18.90;;
11514;SDS011;5814;41.936;25.556;2022-12-18T08:21:37;20.03;;;18.33;;
11514;SDS011;5814;41.936;25.556;2022-12-18T08:24:08;19.80;;;18.07;;
11514;SDS011;5814;41.936;25.556;2022-12-18T08:26:35;18.93;;;17.43;;
11514;SDS011;5814;41.936;25.556;2022-12-18T08:29:02;17.97;;;16.50;;
11514;SDS011;5814;41.936;25.556;2022-12-18T08:31:29;18.83;;;17.13;;
11514;SDS011;5814;41.936;25.556;2022-12-18T08:33:56;18.37;;;16.77;;
11514;SDS011;5814;41.936;25.556;2022-12-18T08:36:23;17.67;;;16.37;;
11514;SDS011;5814;41.936;25.556;2022-12-18T08:38:51;17.90;;;16.30;;
11514;SDS011;5814;41.936;25.556;2022-12-18T08:41:18;20.80;;;18.90;;
11514;SDS011;5814;41.936;25.556;2022-12-18T08:43:45;17.47;;;16.03;;
11514;SDS011;5814;41.936;25.556;2022-12-18T08:46:18;18.37;;;16.80;;
11514;SDS011;5814;41.936;25.556;2022-12-18T08:48:45;17.17;;;15.80;;
11514;SDS011;5814;41.936;25.556;2022-12-18T08:51:12;17.07;;;15.67;;
11514;SDS011;5814;41.936;25.556;2022-12-18T08:53:40;16.43;;;15.03;;
11514;SDS011;5814;41.936;25.556;2022-12-18T08:56:07;15.20;;;14.10;;
11514;SDS011;5814;41.936;25.556;2022-12-18T08:58:34;16.03;;;14.83;;
11514;SDS011;5814;41.936;25.556;2022-12-18T09:01:03;16.03;;;14.83;;
11514;SDS011;5814;41.936;25.556;2022-12-18T09:03:29;15.93;;;14.83;;
11514;SDS011;5814;41.936;25.556;2022-12-18T09:05:57;15.10;;;13.93;;
11514;SDS011;5814;41.936;25.556;2022-12-18T09:08:24;15.37;;;14.07;;
11514;SDS011;5814;41.936;25.556;2022-12-18T09:10:51;15.57;;;14.30;;
11514;SDS011;5814;41.936;25.556;2022-12-18T09:13:18;16.30;;;14.83;;
11514;SDS011;5814;41.936;25.556;2022-12-18T09:15:46;16.00;;;14.80;;
11514;SDS011;5814;41.936;25.556;2022-12-18T09:18:13;15.43;;;14.27;;
11514;SDS011;5814;41.936;25.556;2022-12-18T09:20:40;17.13;;;15.43;;
11514;SDS011;5814;41.936;25.556;2022-12-18T09:23:07;16.97;;;15.40;;
11514;SDS011;5814;41.936;25.556;2022-12-18T09:25:35;15.47;;;14.13;;
11514;SDS011;5814;41.936;25.556;2022-12-18T09:28:02;17.23;;;15.53;;
11514;SDS011;5814;41.936;25.556;2022-12-18T09:30:29;16.20;;;14.73;;
11514;SDS011;5814;41.936;25.556;2022-12-18T09:32:56;15.17;;;13.87;;
11514;SDS011;5814;41.936;25.556;2022-12-18T09:35:23;15.90;;;14.60;;
11514;SDS011;5814;41.936;25.556;2022-12-18T09:37:50;14.53;;;13.43;;
11514;SDS011;5814;41.936;25.556;2022-12-18T09:40:18;13.43;;;12.50;;
11514;SDS011;5814;41.936;25.556;2022-12-18T09:42:45;13.13;;;12.13;;
11514;SDS011;5814;41.936;25.556;2022-12-18T09:45:12;13.23;;;12.33;;
11514;SDS011;5814;41.936;25.556;2022-12-18T09:47:39;14.13;;;13.13;;
11514;SDS011;5814;41.936;25.556;2022-12-18T09:50:15;15.50;;;14.30;;
11514;SDS011;5814;41.936;25.556;2022-12-18T09:52:49;15.63;;;14.53;;
11514;SDS011;5814;41.936;25.556;2022-12-18T09:55:23;16.10;;;14.80;;
11514;SDS011;5814;41.936;25.556;2022-12-18T09:58:11;14.67;;;13.57;;
11514;SDS011;5814;41.936;25.556;2022-12-18T10:00:41;15.57;;;14.47;;
11514;SDS011;5814;41.936;25.556;2022-12-18T10:03:09;16.43;;;15.13;;
11514;SDS011;5814;41.936;25.556;2022-12-18T10:06:08;17.17;;;15.73;;
11514;SDS011;5814;41.936;25.556;2022-12-18T10:08:37;18.40;;;16.77;;
11514;SDS011;5814;41.936;25.556;2022-12-18T10:13:57;19.73;;;18.33;;
11514;SDS011;5814;41.936;25.556;2022-12-18T10:16:25;24.50;;;22.33;;
11514;SDS011;5814;41.936;25.556;2022-12-18T10:19:22;23.70;;;21.53;;
11514;SDS011;5814;41.936;25.556;2022-12-18T10:27:29;23.80;;;21.60;;
11514;SDS011;5814;41.936;25.556;2022-12-18T10:29:56;24.00;;;21.90;;
11514;SDS011;5814;41.936;25.556;2022-12-18T10:32:25;29.03;;;26.13;;
11514;SDS011;5814;41.936;25.556;2022-12-18T10:34:53;28.40;;;25.53;;
11514;SDS011;5814;41.936;25.556;2022-12-18T10:37:19;29.80;;;26.73;;
11514;SDS011;5814;41.936;25.556;2022-12-18T10:39:47;31.77;;;28.17;;
11514;SDS011;5814;41.936;25.556;2022-12-18T10:42:19;29.73;;;26.77;;
11514;SDS011;5814;41.936;25.556;2022-12-18T10:44:46;26.87;;;24.17;;
11514;SDS011;5814;41.936;25.556;2022-12-18T10:47:15;27.83;;;25.07;;
11514;SDS011;5814;41.936;25.556;2022-12-18T10:49:47;28.00;;;25.37;;
11514;SDS011;5814;41.936;25.556;2022-12-18T10:52:15;30.10;;;27.43;;
11514;SDS011;5814;41.936;25.556;2022-12-18T10:54:46;29.17;;;26.33;;
11514;SDS011;5814;41.936;25.556;2022-12-18T10:57:14;27.97;;;25.57;;
11514;SDS011;5814;41.936;25.556;2022-12-18T11:02:49;30.60;;;27.60;;
11514;SDS011;5814;41.936;25.556;2022-12-18T11:05:00;31.03;;;27.93;;
11514;SDS011;5814;41.936;25.556;2022-12-18T11:07:45;30.80;;;27.80;;
11514;SDS011;5814;41.936;25.556;2022-12-18T11:10:14;32.90;;;29.70;;
11514;SDS011;5814;41.936;25.556;2022-12-18T11:12:36;33.40;;;29.83;;
11514;SDS011;5814;41.936;25.556;2022-12-18T11:15:04;34.23;;;30.57;;
11514;SDS011;5814;41.936;25.556;2022-12-18T11:17:33;36.40;;;32.70;;
11514;SDS011;5814;41.936;25.556;2022-12-18T11:20:04;37.90;;;33.97;;
11514;SDS011;5814;41.936;25.556;2022-12-18T11:22:33;45.70;;;39.60;;
11514;SDS011;5814;41.936;25.556;2022-12-18T11:25:00;43.83;;;39.23;;
11514;SDS011;5814;41.936;25.556;2022-12-18T11:27:29;42.47;;;38.03;;
11514;SDS011;5814;41.936;25.556;2022-12-18T11:32:38;40.13;;;35.97;;
11514;SDS011;5814;41.936;25.556;2022-12-18T11:35:10;38.10;;;34.10;;
11514;SDS011;5814;41.936;25.556;2022-12-18T11:37:49;38.60;;;34.40;;
11514;SDS011;5814;41.936;25.556;2022-12-18T11:40:17;37.10;;;33.20;;
11514;SDS011;5814;41.936;25.556;2022-12-18T11:42:48;37.47;;;33.40;;
11514;SDS011;5814;41.936;25.556;2022-12-18T11:45:28;36.93;;;32.30;;
11514;SDS011;5814;41.936;25.556;2022-12-18T11:48:01;35.40;;;31.60;;
11514;SDS011;5814;41.936;25.556;2022-12-18T11:53:16;29.93;;;26.93;;
11514;SDS011;5814;41.936;25.556;2022-12-18T11:56:53;28.17;;;25.47;;
11514;SDS011;5814;41.936;25.556;2022-12-18T11:58:42;26.10;;;23.60;;
11514;SDS011;5814;41.936;25.556;2022-12-18T12:04:01;25.70;;;23.30;;
11514;SDS011;5814;41.936;25.556;2022-12-18T12:06:32;27.87;;;25.07;;
11514;SDS011;5814;41.936;25.556;2022-12-18T12:10:13;31.50;;;28.30;;
11514;SDS011;5814;41.936;25.556;2022-12-18T12:11:53;38.37;;;34.30;;
11514;SDS011;5814;41.936;25.556;2022-12-18T12:18:19;50.03;;;42.07;;
11514;SDS011;5814;41.936;25.556;2022-12-18T12:20:14;49.00;;;41.43;;
11514;SDS011;5814;41.936;25.556;2022-12-18T12:22:59;52.93;;;43.83;;
11514;SDS011;5814;41.936;25.556;2022-12-18T12:25:44;56.43;;;46.40;;
11514;SDS011;5814;41.936;25.556;2022-12-18T12:28:37;62.53;;;48.60;;
11514;SDS011;5814;41.936;25.556;2022-12-18T12:31:13;61.03;;;48.87;;
11514;SDS011;5814;41.936;25.556;2022-12-18T12:33:54;51.30;;;44.37;;
11514;SDS011;5814;41.936;25.556;2022-12-18T12:36:26;49.97;;;44.67;;
11514;SDS011;5814;41.936;25.556;2022-12-18T12:38:54;52.87;;;46.40;;
11514;SDS011;5814;41.936;25.556;2022-12-18T12:41:20;60.40;;;50.23;;
11514;SDS011;5814;41.936;25.556;2022-12-18T12:43:52;53.43;;;47.93;;
11514;SDS011;5814;41.936;25.556;2022-12-18T12:46:19;34.70;;;31.40;;
11514;SDS011;5814;41.936;25.556;2022-12-18T12:48:48;31.73;;;28.87;;
11514;SDS011;5814;41.936;25.556;2022-12-18T12:51:21;25.17;;;22.97;;
11514;SDS011;5814;41.936;25.556;2022-12-18T12:53:47;25.53;;;23.30;;
11514;SDS011;5814;41.936;25.556;2022-12-18T12:56:15;25.03;;;23.03;;
11514;SDS011;5814;41.936;25.556;2022-12-18T12:58:46;21.00;;;19.43;;
11514;SDS011;5814;41.936;25.556;2022-12-18T13:01:18;20.07;;;18.33;;
11514;SDS011;5814;41.936;25.556;2022-12-18T13:04:03;20.83;;;19.13;;
11514;SDS011;5814;41.936;25.556;2022-12-18T13:06:47;19.30;;;17.80;;
11514;SDS011;5814;41.936;25.556;2022-12-18T13:09:17;20.33;;;18.73;;
11514;SDS011;5814;41.936;25.556;2022-12-18T13:11:45;20.77;;;19.27;;
11514;SDS011;5814;41.936;25.556;2022-12-18T13:14:22;20.53;;;18.83;;
11514;SDS011;5814;41.936;25.556;2022-12-18T13:17:09;19.50;;;18.10;;
11514;SDS011;5814;41.936;25.556;2022-12-18T13:19:22;18.50;;;17.17;;
11514;SDS011;5814;41.936;25.556;2022-12-18T13:21:52;18.43;;;17.03;;
11514;SDS011;5814;41.936;25.556;2022-12-18T13:24:25;18.67;;;17.27;;
11514;SDS011;5814;41.936;25.556;2022-12-18T13:26:51;19.23;;;17.73;;
11514;SDS011;5814;41.936;25.556;2022-12-18T13:31:58;19.07;;;17.70;;
11514;SDS011;5814;41.936;25.556;2022-12-18T13:34:25;18.87;;;17.50;;
11514;SDS011;5814;41.936;25.556;2022-12-18T13:36:53;20.00;;;18.40;;
11514;SDS011;5814;41.936;25.556;2022-12-18T13:39:23;21.70;;;19.80;;
11514;SDS011;5814;41.936;25.556;2022-12-18T13:41:52;22.97;;;21.07;;
11514;SDS011;5814;41.936;25.556;2022-12-18T13:44:24;24.33;;;22.33;;
11514;SDS011;5814;41.936;25.556;2022-12-18T13:46:55;19.27;;;17.67;;
11514;SDS011;5814;41.936;25.556;2022-12-18T13:49:24;21.10;;;19.37;;
11514;SDS011;5814;41.936;25.556;2022-12-18T13:54:42;24.07;;;21.87;;
11514;SDS011;5814;41.936;25.556;2022-12-18T13:57:25;24.43;;;22.17;;
11514;SDS011;5814;41.936;25.556;2022-12-18T13:59:51;22.83;;;20.97;;
11514;SDS011;5814;41.936;25.556;2022-12-18T14:02:22;25.40;;;23.17;;
11514;SDS011;5814;41.936;25.556;2022-12-18T14:04:49;24.43;;;22.33;;
11514;SDS011;5814;41.936;25.556;2022-12-18T14:07:17;24.07;;;21.83;;
11514;SDS011;5814;41.936;25.556;2022-12-18T14:09:45;25.30;;;23.03;;
11514;SDS011;5814;41.936;25.556;2022-12-18T14:12:19;25.87;;;23.40;;
11514;SDS011;5814;41.936;25.556;2022-12-18T14:14:52;28.33;;;25.63;;
11514;SDS011;5814;41.936;25.556;2022-12-18T14:17:20;25.90;;;23.57;;
11514;SDS011;5814;41.936;25.556;2022-12-18T14:19:48;27.47;;;25.03;;
11514;SDS011;5814;41.936;25.556;2022-12-18T14:22:17;27.47;;;24.90;;
11514;SDS011;5814;41.936;25.556;2022-12-18T14:24:43;27.00;;;24.60;;
11514;SDS011;5814;41.936;25.556;2022-12-18T14:27:19;26.73;;;24.33;;
11514;SDS011;5814;41.936;25.556;2022-12-18T14:29:40;27.07;;;24.67;;
11514;SDS011;5814;41.936;25.556;2022-12-18T14:32:09;30.80;;;27.70;;
11514;SDS011;5814;41.936;25.556;2022-12-18T14:34:37;29.73;;;27.13;;
11514;SDS011;5814;41.936;25.556;2022-12-18T14:37:04;31.60;;;28.60;;
11514;SDS011;5814;41.936;25.556;2022-12-18T14:39:31;35.40;;;31.90;;
11514;SDS011;5814;41.936;25.556;2022-12-18T14:41:58;30.83;;;27.47;;
11514;SDS011;5814;41.936;25.556;2022-12-18T14:44:25;35.50;;;31.97;;
11514;SDS011;5814;41.936;25.556;2022-12-18T14:46:53;35.97;;;32.57;;
11514;SDS011;5814;41.936;25.556;2022-12-18T14:49:24;45.53;;;40.57;;
11514;SDS011;5814;41.936;25.556;2022-12-18T14:51:57;31.23;;;28.13;;
11514;SDS011;5814;41.936;25.556;2022-12-18T14:54:25;35.50;;;32.03;;
11514;SDS011;5814;41.936;25.556;2022-12-18T14:56:57;36.87;;;33.30;;
11514;SDS011;5814;41.936;25.556;2022-12-18T14:59:24;35.87;;;32.43;;